Time;durP1;ratioP1;P1;durP2;ratioP2;P2;SDS_P1;SDS_P2;PMS_P1;PMS_P2;Temp;Humidity;BMP_temperature;BMP_pressure;BME280_temperature;BME280_humidity;BME280_pressure;Samples;Min_cycle;Max_cycle;Signal;HPM_P1;HPM_P2
2022/04/20 00:01:30;;;;;;;7.30;3.30;;;9.50;99.90;;;;;;5113313;27;20423;-69
2022/04/20 00:03:56;;;;;;;6.40;3.25;;;9.50;99.90;;;;;;5112011;27;20043;-69
2022/04/20 00:06:22;;;;;;;5.18;3.40;;;9.50;99.90;;;;;;5108771;27;20051;-70
2022/04/20 00:08:47;;;;;;;8.68;3.45;;;9.60;99.90;;;;;;5130995;27;20453;-70
2022/04/20 00:11:13;;;;;;;5.32;3.30;;;9.40;99.90;;;;;;5130404;27;20046;-72
2022/04/20 00:13:39;;;;;;;8.15;3.47;;;9.40;99.90;;;;;;5119696;27;20094;-72
2022/04/20 00:16:05;;;;;;;5.10;3.53;;;9.40;99.90;;;;;;5111129;28;20487;-69
2022/04/20 00:18:30;;;;;;;5.15;3.63;;;9.40;99.90;;;;;;5126822;27;20040;-71
2022/04/20 00:20:56;;;;;;;6.35;3.50;;;9.40;99.90;;;;;;5093497;28;20183;-69
2022/04/20 00:23:22;;;;;;;5.07;3.15;;;9.30;99.90;;;;;;5111478;28;20101;-70
2022/04/20 00:25:47;;;;;;;5.32;3.13;;;9.30;99.90;;;;;;5123631;27;20689;-70
2022/04/20 00:28:13;;;;;;;6.03;3.40;;;9.30;99.90;;;;;;5112785;27;20047;-69
2022/04/20 00:30:39;;;;;;;6.50;3.40;;;9.30;99.90;;;;;;5131017;27;20104;-70
2022/04/20 00:33:04;;;;;;;6.45;3.60;;;9.30;99.90;;;;;;5127913;27;20487;-70
2022/04/20 00:35:30;;;;;;;4.88;3.35;;;9.30;99.90;;;;;;5113019;27;20134;-70
2022/04/20 00:37:55;;;;;;;5.50;3.17;;;9.20;99.90;;;;;;5090037;28;20028;-70
2022/04/20 00:40:21;;;;;;;5.55;3.38;;;9.20;99.90;;;;;;5085502;28;20047;-70
2022/04/20 00:42:48;;;;;;;8.60;3.50;;;9.20;99.90;;;;;;5110238;28;20086;-70
2022/04/20 00:45:14;;;;;;;5.47;3.47;;;9.20;99.90;;;;;;5125355;27;20043;-71
2022/04/20 00:47:43;;;;;;;6.10;3.38;;;9.20;99.90;;;;;;5127870;27;20060;-70
2022/04/20 00:50:10;;;;;;;6.85;3.13;;;9.20;99.90;;;;;;5131815;27;20043;-71
2022/04/20 00:52:36;;;;;;;7.60;3.80;;;9.10;99.90;;;;;;5095457;27;20043;-71
2022/04/20 00:55:02;;;;;;;6.55;3.13;;;9.10;99.90;;;;;;5130756;27;20039;-70
2022/04/20 00:57:28;;;;;;;5.07;3.20;;;9.10;99.90;;;;;;5099608;28;20252;-71
2022/04/20 00:59:56;;;;;;;6.28;3.60;;;9.10;99.90;;;;;;5108899;28;20086;-70
2022/04/20 01:02:23;;;;;;;5.82;3.65;;;9.00;99.90;;;;;;5090931;28;20396;-70
2022/04/20 01:04:49;;;;;;;5.47;3.42;;;9.00;99.90;;;;;;5108213;27;20065;-71
2022/04/20 01:07:16;;;;;;;6.55;3.55;;;9.00;99.90;;;;;;5093057;27;20075;-70
2022/04/20 01:09:42;;;;;;;6.75;3.63;;;9.00;99.90;;;;;;5074022;28;20067;-70
2022/04/20 01:12:09;;;;;;;5.35;3.40;;;9.00;99.90;;;;;;5096261;28;20047;-70
2022/04/20 01:14:36;;;;;;;9.43;3.35;;;8.90;99.90;;;;;;5109917;27;20050;-71
2022/04/20 01:17:02;;;;;;;6.85;3.45;;;8.90;99.90;;;;;;5126537;27;20054;-71
2022/04/20 01:19:38;;;;;;;5.60;3.60;;;8.80;99.90;;;;;;5116895;27;20039;-71
2022/04/20 01:22:05;;;;;;;8.70;3.75;;;8.80;99.90;;;;;;5107563;28;20101;-71
2022/04/20 01:24:32;;;;;;;5.80;3.50;;;9.40;99.90;;;;;;5105376;28;20105;-71
2022/04/20 01:26:58;;;;;;;6.50;3.50;;;8.80;99.90;;;;;;5070628;28;20083;-71
2022/04/20 01:29:26;;;;;;;5.80;3.70;;;8.70;99.90;;;;;;5109395;27;20036;-71
2022/04/20 01:31:52;;;;;;;5.97;3.80;;;8.70;99.90;;;;;;5091041;28;20186;-71
2022/04/20 01:34:17;;;;;;;5.53;3.70;;;8.70;99.90;;;;;;5109046;28;20177;-71
2022/04/20 01:36:43;;;;;;;5.72;3.70;;;8.70;99.90;;;;;;5107653;28;20048;-71
2022/04/20 01:39:09;;;;;;;6.50;3.85;;;8.60;99.90;;;;;;5110211;28;20480;-71
2022/04/20 01:41:34;;;;;;;6.68;3.90;;;8.60;99.90;;;;;;5108538;28;20498;-72
2022/04/20 01:44:00;;;;;;;5.97;3.90;;;8.60;99.90;;;;;;5110578;27;20039;-71
2022/04/20 01:46:25;;;;;;;7.45;4.13;;;8.50;99.90;;;;;;5118575;27;20050;-71
2022/04/20 01:48:51;;;;;;;7.25;4.00;;;8.50;99.90;;;;;;5127348;27;20055;-71
2022/04/20 01:54:01;;;;;;;6.03;3.60;;;8.50;99.90;;;;;;5129272;27;20110;-71
2022/04/20 01:56:26;;;;;;;6.47;3.90;;;8.40;99.90;;;;;;5098662;27;20136;-71
2022/04/20 01:58:52;;;;;;;5.72;3.83;;;8.40;99.90;;;;;;5088439;28;20051;-71
2022/04/20 02:04:02;;;;;;;8.70;3.65;;;8.40;99.90;;;;;;5112157;27;20194;-71
2022/04/20 02:06:28;;;;;;;6.55;3.75;;;8.40;99.90;;;;;;5109414;28;20553;-71
2022/04/20 02:08:53;;;;;;;6.88;4.28;;;8.40;99.90;;;;;;5090961;28;20093;-71
2022/04/20 02:11:19;;;;;;;6.18;3.92;;;8.40;99.90;;;;;;5107836;28;20043;-71
2022/04/20 02:13:45;;;;;;;6.47;3.92;;;8.30;99.90;;;;;;5110029;28;20031;-71
2022/04/20 02:16:10;;;;;;;7.05;4.10;;;8.30;99.90;;;;;;5090358;28;20044;-71
2022/04/20 02:18:36;;;;;;;7.85;3.75;;;8.30;99.90;;;;;;5108793;28;20031;-71
2022/04/20 02:21:02;;;;;;;5.55;3.90;;;8.30;99.90;;;;;;5108312;28;20043;-71
2022/04/20 02:23:27;;;;;;;6.28;3.55;;;8.20;99.90;;;;;;5107361;28;20040;-71
2022/04/20 02:25:54;;;;;;;5.03;3.78;;;8.20;99.90;;;;;;5108135;28;20054;-71
2022/04/20 02:28:19;;;;;;;6.47;3.90;;;8.20;99.90;;;;;;5108205;28;20131;-70
2022/04/20 02:30:45;;;;;;;6.40;3.85;;;8.20;99.90;;;;;;5107948;28;20134;-70
2022/04/20 02:33:11;;;;;;;6.85;3.97;;;8.20;99.90;;;;;;5090734;28;20055;-70
2022/04/20 02:35:38;;;;;;;9.68;4.47;;;8.10;99.90;;;;;;5108536;28;20498;-70
2022/04/20 02:38:05;;;;;;;12.95;4.25;;;8.10;99.90;;;;;;5108846;28;20055;-70
2022/04/20 02:40:31;;;;;;;8.68;4.30;;;8.10;99.90;;;;;;5111073;28;20120;-70
2022/04/20 02:42:57;;;;;;;9.43;3.78;;;8.10;99.90;;;;;;5109463;28;20532;-70
2022/04/20 02:45:22;;;;;;;5.95;3.97;;;8.10;99.90;;;;;;5115804;28;20110;-70
2022/04/20 02:47:49;;;;;;;6.20;3.83;;;8.10;99.90;;;;;;5110866;28;20047;-70
2022/04/20 02:50:14;;;;;;;7.35;4.57;;;8.00;99.90;;;;;;5113365;28;20513;-70
2022/04/20 02:52:40;;;;;;;6.22;4.10;;;8.70;99.90;;;;;;5091503;28;20059;-70
2022/04/20 02:55:06;;;;;;;7.53;4.00;;;8.00;99.90;;;;;;5094590;28;20125;-71
2022/04/20 02:57:31;;;;;;;6.18;3.78;;;8.00;99.90;;;;;;5112715;28;20081;-71
2022/04/20 02:59:57;;;;;;;6.75;4.13;;;7.90;99.90;;;;;;5111654;28;20051;-71
2022/04/20 03:02:22;;;;;;;5.82;3.70;;;7.90;99.90;;;;;;5110315;27;20138;-71
2022/04/20 03:04:48;;;;;;;7.95;4.03;;;7.90;99.90;;;;;;5131949;27;20047;-72
2022/04/20 03:07:14;;;;;;;5.95;3.90;;;7.90;99.90;;;;;;5131183;27;20081;-72
2022/04/20 03:09:39;;;;;;;6.30;3.88;;;7.90;99.90;;;;;;5132553;27;20505;-71
2022/04/20 03:12:05;;;;;;;7.45;4.03;;;7.90;99.90;;;;;;5134653;27;20035;-72
2022/04/20 03:14:31;;;;;;;6.75;4.13;;;7.90;99.90;;;;;;5122393;27;20031;-72
2022/04/20 03:16:56;;;;;;;6.45;4.15;;;7.80;99.90;;;;;;5114033;28;20036;-70
2022/04/20 03:19:22;;;;;;;7.85;4.18;;;7.80;99.90;;;;;;5125638;27;20031;-70
2022/04/20 03:21:47;;;;;;;6.18;4.10;;;7.80;99.90;;;;;;5111302;27;20066;-71
2022/04/20 03:24:13;;;;;;;7.70;4.30;;;7.80;99.90;;;;;;5116305;27;20035;-70
2022/04/20 03:26:39;;;;;;;6.97;4.15;;;7.80;99.90;;;;;;5134163;27;20174;-70
2022/04/20 03:29:05;;;;;;;7.40;3.92;;;7.80;99.90;;;;;;5132240;27;20066;-70
2022/04/20 03:31:32;;;;;;;5.35;3.90;;;7.70;99.90;;;;;;5114219;27;20051;-70
2022/04/20 03:33:57;;;;;;;8.60;4.13;;;7.70;99.90;;;;;;5122868;27;20107;-70
2022/04/20 03:36:23;;;;;;;6.53;4.13;;;7.70;99.90;;;;;;5109995;28;20130;-70
2022/04/20 03:38:48;;;;;;;8.68;4.22;;;7.70;99.90;;;;;;5091872;28;20043;-70
2022/04/20 03:41:14;;;;;;;5.88;4.03;;;9.00;99.90;;;;;;5090066;28;20048;-71
2022/04/20 03:43:40;;;;;;;6.10;4.20;;;7.70;99.90;;;;;;5114030;27;20380;-71
2022/04/20 03:46:06;;;;;;;5.82;4.00;;;7.70;99.90;;;;;;5112138;27;20336;-70
2022/04/20 03:48:31;;;;;;;7.68;4.55;;;7.70;99.90;;;;;;5112060;27;20115;-70
2022/04/20 03:50:57;;;;;;;7.35;4.15;;;7.70;99.90;;;;;;5111117;28;20503;-70
2022/04/20 03:53:23;;;;;;;6.47;4.00;;;7.70;99.90;;;;;;5110188;28;20071;-70
2022/04/20 03:55:48;;;;;;;8.10;4.25;;;7.60;99.90;;;;;;5110433;28;20054;-70
2022/04/20 03:58:14;;;;;;;6.85;4.45;;;7.60;99.90;;;;;;5119185;27;20039;-71
2022/04/20 04:00:40;;;;;;;6.03;4.00;;;7.60;99.90;;;;;;5131220;27;20090;-71
2022/04/20 04:03:05;;;;;;;6.68;4.38;;;7.60;99.90;;;;;;5116216;27;20102;-70
2022/04/20 04:05:31;;;;;;;7.05;4.32;;;7.60;99.90;;;;;;5115228;27;20046;-70
2022/04/20 04:07:56;;;;;;;7.32;4.50;;;7.60;99.90;;;;;;5121024;27;20063;-70
2022/04/20 04:10:22;;;;;;;7.85;4.40;;;7.50;99.90;;;;;;5103474;28;20124;-70
2022/04/20 04:12:47;;;;;;;6.72;4.28;;;7.50;99.90;;;;;;5109928;28;20047;-70
2022/04/20 04:15:13;;;;;;;6.05;4.18;;;7.50;99.90;;;;;;5114203;28;20096;-71
2022/04/20 04:17:39;;;;;;;7.72;4.43;;;7.50;99.90;;;;;;5094130;28;20043;-72
2022/04/20 04:20:05;;;;;;;7.75;4.72;;;7.50;99.90;;;;;;5091447;28;20040;-72
2022/04/20 04:22:31;;;;;;;10.82;5.85;;;7.50;99.90;;;;;;5090110;28;20049;-72
2022/04/20 04:24:57;;;;;;;7.50;4.65;;;7.40;99.90;;;;;;5089158;28;20048;-71
2022/04/20 04:27:23;;;;;;;6.97;4.53;;;7.40;99.90;;;;;;5072148;28;20044;-72
2022/04/20 04:29:49;;;;;;;8.05;4.50;;;7.50;99.90;;;;;;5090478;28;20040;-72
2022/04/20 04:32:14;;;;;;;6.72;4.10;;;7.40;99.90;;;;;;5089485;28;20036;-72
2022/04/20 04:34:40;;;;;;;8.88;4.57;;;7.40;99.90;;;;;;5101927;28;20078;-72
2022/04/20 04:37:09;;;;;;;6.60;4.70;;;7.40;99.90;;;;;;5090344;28;20046;-72
2022/04/20 04:39:34;;;;;;;6.95;4.47;;;7.40;99.90;;;;;;5110605;28;20056;-72
2022/04/20 04:42:01;;;;;;;7.28;4.60;;;7.40;99.90;;;;;;5091300;28;20054;-71
2022/04/20 04:44:27;;;;;;;10.05;4.75;;;7.40;99.90;;;;;;5110101;28;20484;-71
2022/04/20 04:49:38;;;;;;;8.43;4.60;;;7.40;99.90;;;;;;5111117;27;20055;-71
2022/04/20 04:52:06;;;;;;;8.55;4.60;;;7.30;99.90;;;;;;5094192;28;20514;-71
2022/04/20 04:54:33;;;;;;;8.63;5.10;;;7.40;99.90;;;;;;5112735;28;20052;-71
2022/04/20 04:56:59;;;;;;;13.43;4.80;;;7.40;99.90;;;;;;5109349;28;20511;-71
2022/04/20 04:59:24;;;;;;;12.18;5.03;;;7.40;99.90;;;;;;5110189;28;20044;-71
2022/04/20 05:01:50;;;;;;;8.05;4.63;;;7.40;99.90;;;;;;5118712;27;20047;-71
2022/04/20 05:04:16;;;;;;;9.90;4.80;;;7.40;99.90;;;;;;5131336;27;20035;-72
2022/04/20 05:06:42;;;;;;;6.95;4.55;;;7.40;99.90;;;;;;5108898;27;20039;-71
2022/04/20 05:09:08;;;;;;;7.78;4.78;;;7.40;99.90;;;;;;5130256;27;20047;-71
2022/04/20 05:11:33;;;;;;;7.97;5.07;;;7.50;99.90;;;;;;5131518;27;20039;-72
2022/04/20 05:13:59;;;;;;;6.15;4.40;;;8.10;99.90;;;;;;5110239;27;20453;-71
2022/04/20 05:16:24;;;;;;;8.15;4.25;;;7.50;99.90;;;;;;5095036;28;20043;-71
2022/04/20 05:18:51;;;;;;;8.02;4.78;;;7.50;99.90;;;;;;5109927;28;20047;-71
2022/04/20 05:21:17;;;;;;;9.77;4.75;;;7.50;99.90;;;;;;5088566;28;20102;-71
2022/04/20 05:23:43;;;;;;;7.13;4.40;;;7.50;99.90;;;;;;5092438;28;20470;-71
2022/04/20 05:26:09;;;;;;;6.93;4.63;;;7.50;99.90;;;;;;5110114;27;20119;-71
2022/04/20 05:28:34;;;;;;;9.25;4.63;;;7.50;99.90;;;;;;5109089;28;20468;-71
2022/04/20 05:31:00;;;;;;;9.25;4.47;;;7.50;99.90;;;;;;5108889;28;20075;-71
2022/04/20 05:33:25;;;;;;;8.30;4.38;;;7.50;99.90;;;;;;5108062;28;20055;-71
2022/04/20 05:35:51;;;;;;;7.78;4.40;;;7.60;99.90;;;;;;5109349;28;20100;-71
2022/04/20 05:43:45;;;;;;;8.10;4.47;;;7.70;99.90;;;;;;5109808;27;20399;-71
2022/04/20 05:46:14;;;;;;;7.50;4.70;;;7.70;99.90;;;;;;5108952;28;20139;-71
2022/04/20 05:48:39;;;;;;;8.15;4.72;;;7.70;99.90;;;;;;5107898;28;20053;-73
2022/04/20 05:51:05;;;;;;;9.07;4.60;;;7.70;99.90;;;;;;5108769;28;20119;-71
2022/04/20 05:53:31;;;;;;;8.60;4.75;;;7.80;99.90;;;;;;5109274;28;20054;-71
2022/04/20 05:55:56;;;;;;;6.97;4.40;;;7.80;99.90;;;;;;5106735;27;20113;-71
2022/04/20 05:58:22;;;;;;;7.75;5.00;;;7.80;99.90;;;;;;5090813;28;20119;-71
2022/04/20 06:00:47;;;;;;;5.63;4.30;;;7.90;99.90;;;;;;5108304;28;20396;-72
2022/04/20 06:03:13;;;;;;;13.88;5.03;;;8.00;99.90;;;;;;5107681;28;20051;-71
2022/04/20 06:05:39;;;;;;;8.55;4.72;;;8.00;99.90;;;;;;5128293;27;20043;-72
2022/04/20 06:08:04;;;;;;;8.88;4.65;;;8.00;99.90;;;;;;5127175;27;20039;-71
2022/04/20 06:10:32;;;;;;;7.80;4.80;;;8.10;99.90;;;;;;5128689;27;20095;-71
2022/04/20 06:12:58;;;;;;;5.85;4.40;;;8.20;99.90;;;;;;5109284;27;20059;-72
2022/04/20 06:15:24;;;;;;;7.45;4.82;;;8.20;99.90;;;;;;5130406;27;20383;-72
2022/04/20 06:17:49;;;;;;;7.32;4.90;;;8.20;99.90;;;;;;5115617;27;20040;-72
2022/04/20 06:20:15;;;;;;;10.32;5.38;;;8.30;99.90;;;;;;5110028;28;20047;-71
2022/04/20 06:22:41;;;;;;;8.60;4.85;;;8.40;99.90;;;;;;5104460;28;20483;-71
2022/04/20 06:25:07;;;;;;;9.23;4.88;;;8.50;99.90;;;;;;5107915;28;20046;-72
2022/04/20 06:27:32;;;;;;;8.95;5.00;;;8.50;99.90;;;;;;5109233;28;20374;-73
2022/04/20 06:29:58;;;;;;;9.07;4.38;;;8.60;99.90;;;;;;5118439;28;20039;-71
2022/04/20 06:32:25;;;;;;;9.18;4.78;;;8.70;99.90;;;;;;5116784;28;20040;-73
2022/04/20 06:34:51;;;;;;;10.23;4.70;;;8.70;99.90;;;;;;5093352;28;20118;-73
2022/04/20 06:37:18;;;;;;;8.98;4.82;;;8.70;99.90;;;;;;5091473;28;20048;-73
2022/04/20 06:39:44;;;;;;;9.63;4.50;;;8.80;99.90;;;;;;5104614;28;20138;-72
2022/04/20 06:42:09;;;;;;;9.32;4.55;;;9.10;99.90;;;;;;5087995;28;20210;-73
2022/04/20 06:44:35;;;;;;;6.68;4.47;;;9.00;99.90;;;;;;5087334;28;20480;-72
2022/04/20 06:47:01;;;;;;;8.05;4.50;;;9.10;99.90;;;;;;5086246;28;20054;-72
2022/04/20 06:49:27;;;;;;;8.55;4.57;;;9.10;99.90;;;;;;5097563;28;20032;-72
2022/04/20 07:00:06;;;;;;;9.95;4.93;;;9.40;99.90;;;;;;5087800;28;20044;-72
2022/04/20 07:02:32;;;;;;;8.20;4.63;;;9.50;99.90;;;;;;5088985;28;20067;-73
2022/04/20 07:04:58;;;;;;;7.93;4.43;;;9.60;99.90;;;;;;5087402;28;20047;-71
2022/04/20 07:07:23;;;;;;;8.93;4.70;;;9.60;99.90;;;;;;5106795;28;20123;-71
2022/04/20 07:09:49;;;;;;;8.80;4.80;;;9.70;99.90;;;;;;5107363;28;20044;-71
2022/04/20 07:12:15;;;;;;;6.63;4.60;;;9.80;99.90;;;;;;5107059;28;20222;-70
2022/04/20 07:14:40;;;;;;;8.38;4.90;;;9.90;99.90;;;;;;5108282;28;20119;-72
2022/04/20 07:17:07;;;;;;;7.40;4.50;;;9.90;99.90;;;;;;5110005;28;20097;-71
2022/04/20 07:19:36;;;;;;;7.28;4.63;;;10.00;99.90;;;;;;5091626;28;20055;-71
2022/04/20 07:22:02;;;;;;;8.13;4.70;;;10.00;99.90;;;;;;5106974;28;20081;-71
2022/04/20 07:24:28;;;;;;;9.02;4.28;;;10.10;99.90;;;;;;5090591;28;20040;-71
2022/04/20 07:26:54;;;;;;;9.60;4.60;;;10.30;99.90;;;;;;5086121;28;20044;-71
2022/04/20 07:29:19;;;;;;;7.70;4.10;;;10.40;99.90;;;;;;5092769;28;20411;-71
2022/04/20 07:31:46;;;;;;;9.02;4.00;;;10.50;99.90;;;;;;5106806;28;20046;-71
2022/04/20 07:34:12;;;;;;;7.30;4.25;;;10.60;99.90;;;;;;5109382;28;20047;-71
2022/04/20 07:36:37;;;;;;;7.90;4.30;;;10.70;99.90;;;;;;5110495;27;20375;-71
2022/04/20 07:39:03;;;;;;;6.30;4.32;;;10.80;99.90;;;;;;5111789;27;20044;-71
2022/04/20 07:41:28;;;;;;;6.72;4.10;;;10.90;99.90;;;;;;5110650;28;20059;-71
2022/04/20 07:43:54;;;;;;;5.47;3.75;;;11.00;99.90;;;;;;5088700;28;20051;-70
2022/04/20 07:46:20;;;;;;;8.98;4.03;;;11.20;99.90;;;;;;5108861;28;20058;-70
2022/04/20 07:48:46;;;;;;;5.68;3.70;;;11.30;99.90;;;;;;5109732;28;20503;-70
2022/04/20 07:51:13;;;;;;;6.18;3.85;;;11.40;99.90;;;;;;5111669;27;20039;-70
2022/04/20 07:53:38;;;;;;;6.25;3.42;;;11.50;99.90;;;;;;5091731;27;20177;-70
2022/04/20 07:56:05;;;;;;;5.97;3.63;;;11.60;99.90;;;;;;5120130;27;20119;-71
2022/04/20 07:58:31;;;;;;;6.93;3.70;;;11.70;99.90;;;;;;5125348;27;20043;-70
2022/04/20 08:00:57;;;;;;;4.88;3.20;;;11.80;99.90;;;;;;5118769;27;20043;-70
2022/04/20 08:03:24;;;;;;;5.70;3.13;;;11.90;99.90;;;;;;5111891;28;20067;-70
2022/04/20 08:05:54;;;;;;;8.32;3.45;;;12.00;99.90;;;;;;5110433;28;20051;-69
2022/04/20 08:08:21;;;;;;;5.07;3.25;;;12.10;99.90;;;;;;5108557;28;20036;-69
2022/04/20 08:10:48;;;;;;;5.95;3.40;;;12.20;99.90;;;;;;5092491;28;20139;-69
2022/04/20 08:15:58;;;;;;;5.95;3.15;;;12.30;99.90;;;;;;5104552;28;20056;-71
2022/04/20 08:18:25;;;;;;;5.15;2.90;;;12.50;98.90;;;;;;5090278;28;20083;-70
2022/04/20 08:20:50;;;;;;;4.32;2.70;;;12.60;98.80;;;;;;5089535;28;20052;-71
2022/04/20 08:23:16;;;;;;;4.55;2.70;;;12.70;98.50;;;;;;5088281;28;20048;-71
2022/04/20 08:25:43;;;;;;;3.90;2.90;;;12.80;97.50;;;;;;5089242;28;20040;-71
2022/04/20 08:28:10;;;;;;;4.05;2.60;;;12.90;97.10;;;;;;5090284;28;20051;-70
2022/04/20 08:30:37;;;;;;;4.72;2.33;;;13.30;96.00;;;;;;5073857;28;20124;-71
2022/04/20 08:33:08;;;;;;;4.38;2.63;;;13.10;94.70;;;;;;5071621;28;20093;-71
2022/04/20 08:35:38;;;;;;;6.90;2.38;;;13.20;94.80;;;;;;5110542;28;20099;-71
2022/04/20 08:38:04;;;;;;;4.07;2.20;;;13.30;94.20;;;;;;5109784;28;20043;-70
2022/04/20 08:40:31;;;;;;;5.75;2.35;;;13.50;93.10;;;;;;5110765;28;20035;-70
2022/04/20 08:43:05;;;;;;;2.92;2.03;;;13.60;92.50;;;;;;5087305;28;20071;-71
2022/04/20 08:45:33;;;;;;;3.20;2.10;;;13.70;91.90;;;;;;5088845;28;20050;-71
2022/04/20 08:47:59;;;;;;;5.78;2.30;;;13.80;91.20;;;;;;5088509;28;20043;-69
2022/04/20 08:50:25;;;;;;;3.85;2.35;;;14.00;90.60;;;;;;5109218;27;20425;-70
2022/04/20 08:52:53;;;;;;;3.30;2.03;;;14.10;90.30;;;;;;5094132;28;20047;-70
2022/04/20 08:55:19;;;;;;;3.70;2.20;;;14.20;89.50;;;;;;5122946;27;20059;-69
2022/04/20 08:57:46;;;;;;;3.30;2.15;;;14.40;86.80;;;;;;5089980;28;20434;-70
2022/04/20 09:00:21;;;;;;;4.90;2.13;;;14.40;85.10;;;;;;5075249;28;20055;-70
2022/04/20 09:02:50;;;;;;;4.20;2.23;;;14.50;84.60;;;;;;5107979;28;20047;-70
2022/04/20 09:05:16;;;;;;;3.75;2.60;;;14.60;83.60;;;;;;5109318;28;20285;-69
2022/04/20 09:07:42;;;;;;;3.72;2.47;;;14.70;82.20;;;;;;5107063;28;20243;-69
2022/04/20 09:10:07;;;;;;;5.00;2.20;;;14.80;81.80;;;;;;5109995;28;20051;-69
2022/04/20 09:12:33;;;;;;;5.22;2.30;;;15.00;82.20;;;;;;5090208;28;20408;-69
2022/04/20 09:15:00;;;;;;;3.63;2.40;;;15.10;81.20;;;;;;5108906;28;20078;-69
2022/04/20 09:17:26;;;;;;;4.30;2.35;;;15.20;81.20;;;;;;5108388;28;20052;-70
2022/04/20 09:19:54;;;;;;;5.68;2.42;;;15.30;81.20;;;;;;5090556;28;20043;-70
2022/04/20 09:22:25;;;;;;;4.60;2.15;;;15.50;80.00;;;;;;5109005;28;20058;-70
2022/04/20 09:25:14;;;;;;;4.43;2.10;;;15.90;78.50;;;;;;5108786;28;20048;-70
2022/04/20 09:27:42;;;;;;;4.22;2.40;;;15.80;77.80;;;;;;5107915;28;20047;-70
2022/04/20 09:30:15;;;;;;;3.78;2.30;;;16.00;75.80;;;;;;5109561;28;20052;-70
2022/04/20 09:32:45;;;;;;;4.78;2.55;;;16.20;75.60;;;;;;5089478;28;20100;-70
2022/04/20 09:35:13;;;;;;;5.10;2.33;;;16.50;75.30;;;;;;5092985;28;20418;-70
2022/04/20 09:37:40;;;;;;;5.60;2.40;;;17.10;75.10;;;;;;5070473;28;20422;-70
2022/04/20 09:40:11;;;;;;;4.15;2.40;;;19.30;72.60;;;;;;5090674;28;20056;-70
2022/04/20 09:42:39;;;;;;;5.72;2.20;;;21.90;65.80;;;;;;5069387;28;20270;-70
2022/04/20 09:45:07;;;;;;;5.07;2.40;;;24.40;58.40;;;;;;5088604;28;20484;-70
2022/04/20 09:50:27;;;;;;;4.43;1.90;;;28.70;48.40;;;;;;5088882;28;20044;-71
2022/04/20 09:52:55;;;;;;;4.93;2.10;;;30.80;44.60;;;;;;5068750;28;20480;-71
2022/04/20 09:55:35;;;;;;;3.45;1.88;;;31.90;43.00;;;;;;5087923;28;20530;-71
2022/04/20 09:58:20;;;;;;;3.28;2.05;;;33.40;41.50;;;;;;5087666;28;20055;-71
2022/04/20 10:00:51;;;;;;;5.32;2.00;;;34.90;40.30;;;;;;5087532;28;20360;-70
2022/04/20 10:03:30;;;;;;;4.60;1.92;;;35.70;37.50;;;;;;5070028;28;20059;-70
2022/04/20 10:05:59;;;;;;;3.67;1.70;;;36.60;37.50;;;;;;5087937;28;20491;-70
2022/04/20 10:08:25;;;;;;;2.95;1.90;;;37.00;36.50;;;;;;5067992;28;20040;-70
2022/04/20 10:10:54;;;;;;;3.15;1.90;;;37.70;35.90;;;;;;5069815;28;20504;-71
2022/04/20 10:13:22;;;;;;;4.15;1.90;;;38.40;35.40;;;;;;5088172;28;20044;-70
2022/04/20 10:16:10;;;;;;;2.55;1.80;;;38.90;34.70;;;;;;5087280;28;20056;-70
2022/04/20 10:18:44;;;;;;;4.32;1.80;;;39.60;34.70;;;;;;5088858;28;20040;-70
2022/04/20 10:21:14;;;;;;;3.17;1.77;;;40.20;33.50;;;;;;5069091;28;20040;-70
2022/04/20 10:23:43;;;;;;;3.50;1.80;;;39.90;33.20;;;;;;5087501;28;20377;-71
2022/04/20 10:26:09;;;;;;;3.97;1.90;;;40.10;33.60;;;;;;5088251;28;20047;-71
2022/04/20 10:29:00;;;;;;;4.28;1.77;;;40.70;32.70;;;;;;5088272;28;20207;-71
2022/04/20 10:31:41;;;;;;;4.65;1.88;;;41.30;33.10;;;;;;5087362;28;20052;-70
2022/04/20 10:34:07;;;;;;;3.08;1.70;;;41.60;32.10;;;;;;5096233;28;20048;-70
2022/04/20 10:36:34;;;;;;;4.25;1.65;;;41.90;31.60;;;;;;5090422;28;20048;-70
2022/04/20 10:39:22;;;;;;;4.95;1.60;;;42.00;31.50;;;;;;5108795;28;20473;-70
2022/04/20 10:42:11;;;;;;;3.60;1.60;;;42.00;30.70;;;;;;5106893;28;20096;-71
2022/04/20 10:44:55;;;;;;;3.63;1.50;;;42.20;30.80;;;;;;5094923;28;20094;-71
2022/04/20 10:47:36;;;;;;;2.45;1.60;;;42.00;30.80;;;;;;5108289;28;20077;-71
2022/04/20 10:50:14;;;;;;;3.25;1.50;;;42.00;30.60;;;;;;5089154;28;20122;-71
2022/04/20 10:52:41;;;;;;;3.65;1.63;;;42.20;30.30;;;;;;5107750;28;20040;-71
2022/04/20 10:55:11;;;;;;;2.63;1.50;;;42.20;30.50;;;;;;5104391;28;20459;-71
2022/04/20 10:57:38;;;;;;;3.38;1.40;;;42.10;30.10;;;;;;5086233;28;20132;-71
2022/04/20 11:00:26;;;;;;;3.70;1.50;;;42.20;30.10;;;;;;5087906;28;20062;-70
2022/04/20 11:03:00;;;;;;;3.15;1.30;;;42.00;30.10;;;;;;5087015;28;20048;-71
2022/04/20 11:05:26;;;;;;;1.95;1.27;;;41.50;30.30;;;;;;5087648;28;20122;-71
2022/04/20 11:08:14;;;;;;;2.10;1.33;;;41.10;29.80;;;;;;5101017;28;20131;-71
2022/04/20 11:10:42;;;;;;;3.85;1.30;;;40.90;29.80;;;;;;5090715;28;20459;-71
2022/04/20 11:19:07;;;;;;;2.35;1.30;;;42.30;29.80;;;;;;5093255;28;20044;-70
2022/04/20 11:21:33;;;;;;;1.42;1.17;;;42.60;29.90;;;;;;5090019;28;20066;-70
2022/04/20 11:24:07;;;;;;;2.28;1.20;;;43.20;29.70;;;;;;5106753;28;20151;-71
2022/04/20 11:26:41;;;;;;;1.27;1.10;;;43.10;29.60;;;;;;5073081;28;20119;-71
2022/04/20 11:29:15;;;;;;;3.33;1.33;;;43.00;29.40;;;;;;5091661;28;20147;-71
2022/04/20 11:31:48;;;;;;;3.60;1.30;;;42.30;29.50;;;;;;5090502;28;20074;-72
2022/04/20 11:34:17;;;;;;;1.65;1.15;;;42.20;29.70;;;;;;5091103;28;20134;-70
2022/04/20 11:36:45;;;;;;;1.50;1.30;;;40.80;29.70;;;;;;5070255;28;20055;-71
2022/04/20 11:39:11;;;;;;;3.50;1.50;;;38.90;30.00;;;;;;5090217;28;20048;-71
2022/04/20 11:41:38;;;;;;;5.43;1.40;;;36.70;30.30;;;;;;5090257;28;20083;-71
2022/04/20 11:44:18;;;;;;;3.92;1.50;;;34.70;30.90;;;;;;5091416;28;20044;-70
2022/04/20 11:46:44;;;;;;;1.90;1.20;;;33.20;32.10;;;;;;5089808;28;20102;-71
2022/04/20 11:49:10;;;;;;;2.58;1.15;;;31.60;32.70;;;;;;5091512;28;20091;-71
2022/04/20 11:51:37;;;;;;;3.38;1.20;;;30.20;33.10;;;;;;5089131;28;20044;-71
2022/04/20 11:54:03;;;;;;;1.88;1.23;;;29.00;34.30;;;;;;5092179;28;20074;-71
2022/04/20 11:56:33;;;;;;;2.30;1.20;;;28.40;34.80;;;;;;5091007;28;20516;-70
2022/04/20 11:59:00;;;;;;;1.98;1.33;;;28.10;35.20;;;;;;5090046;28;20102;-70
2022/04/20 12:01:25;;;;;;;3.47;1.40;;;29.20;35.20;;;;;;5089090;28;20090;-71
2022/04/20 12:03:51;;;;;;;3.03;1.40;;;31.60;34.20;;;;;;5072381;28;20048;-71
2022/04/20 12:06:18;;;;;;;1.98;1.30;;;33.30;33.40;;;;;;5088978;28;20036;-71
2022/04/20 12:08:44;;;;;;;1.98;1.27;;;34.90;32.50;;;;;;5089135;28;20050;-71
2022/04/20 12:11:11;;;;;;;1.48;1.30;;;36.30;31.70;;;;;;5090027;28;20032;-71
2022/04/20 12:13:39;;;;;;;3.35;1.30;;;37.20;31.50;;;;;;5077327;28;20388;-71
2022/04/20 12:16:08;;;;;;;3.97;1.42;;;38.10;31.20;;;;;;5110654;28;20446;-69
2022/04/20 12:18:44;;;;;;;3.45;1.40;;;38.40;31.20;;;;;;5092665;28;20047;-72
2022/04/20 12:21:34;;;;;;;3.50;1.40;;;39.00;30.90;;;;;;5090540;28;20035;-70
2022/04/20 12:24:00;;;;;;;3.30;1.20;;;39.20;30.80;;;;;;5109779;28;20197;-70
2022/04/20 12:26:30;;;;;;;2.80;1.30;;;39.30;30.70;;;;;;5110199;28;20039;-70
2022/04/20 12:28:59;;;;;;;2.53;1.55;;;39.60;30.80;;;;;;5109178;28;20116;-74
2022/04/20 12:31:26;;;;;;;3.92;1.30;;;39.70;30.80;;;;;;5110909;28;20055;-70
2022/04/20 12:34:05;;;;;;;2.55;1.25;;;39.70;30.60;;;;;;5086228;28;20064;-70
2022/04/20 12:36:48;;;;;;;3.50;1.40;;;39.20;30.50;;;;;;5088149;28;20040;-70
2022/04/20 12:39:29;;;;;;;3.10;1.60;;;38.30;30.80;;;;;;5090309;28;20048;-70
2022/04/20 12:41:57;;;;;;;2.58;1.48;;;36.40;31.40;;;;;;5090235;28;20040;-70
2022/04/20 12:44:51;;;;;;;2.22;1.20;;;34.20;31.80;;;;;;5092147;28;20040;-70
2022/04/20 12:47:17;;;;;;;2.90;1.45;;;32.00;33.00;;;;;;5089273;28;20044;-70
2022/04/20 12:49:53;;;;;;;2.72;1.55;;;30.20;34.00;;;;;;5088319;28;20455;-70
2022/04/20 12:52:27;;;;;;;2.53;1.60;;;28.80;35.20;;;;;;5087966;28;20109;-70
2022/04/20 12:55:07;;;;;;;3.42;1.65;;;27.70;36.00;;;;;;5103122;27;20058;-70
2022/04/20 13:03:17;;;;;;;2.65;1.58;;;24.80;38.50;;;;;;5088717;28;20393;-70
2022/04/20 13:05:44;;;;;;;2.47;1.60;;;24.40;39.70;;;;;;5106539;27;20043;-69
2022/04/20 13:08:12;;;;;;;2.60;1.70;;;24.20;40.00;;;;;;5108762;28;20075;-70
2022/04/20 13:10:40;;;;;;;4.28;1.70;;;24.10;40.50;;;;;;5109480;28;20042;-70
2022/04/20 13:13:07;;;;;;;2.90;1.80;;;23.80;40.60;;;;;;5109234;28;20048;-69
2022/04/20 13:15:34;;;;;;;2.65;1.55;;;23.60;41.10;;;;;;5091567;28;20047;-69
2022/04/20 13:18:00;;;;;;;3.67;1.70;;;23.50;41.50;;;;;;5106708;28;20051;-68
2022/04/20 13:20:27;;;;;;;5.70;2.67;;;23.50;41.90;;;;;;5110019;28;20044;-68
2022/04/20 13:22:54;;;;;;;5.43;2.50;;;23.20;42.90;;;;;;5107285;28;20516;-68
2022/04/20 13:28:04;;;;;;;5.13;2.80;;;23.10;45.60;;;;;;5108444;28;20122;-69
2022/04/20 13:30:35;;;;;;;5.10;2.80;;;23.00;46.50;;;;;;5108777;28;20043;-69
2022/04/20 13:33:03;;;;;;;4.07;2.60;;;22.90;47.10;;;;;;5107429;28;20097;-69
2022/04/20 13:35:29;;;;;;;6.97;2.67;;;22.70;47.10;;;;;;5105169;28;20088;-69
2022/04/20 13:37:55;;;;;;;5.88;2.70;;;22.70;46.80;;;;;;5107049;28;20365;-69